Time;durP1;ratioP1;P1;durP2;ratioP2;P2;SDS_P1;SDS_P2;PMS_P1;PMS_P2;Temp;Humidity;BMP_temperature;BMP_pressure;BME280_temperature;BME280_humidity;BME280_pressure;Samples;Min_cycle;Max_cycle;Signal;HPM_P1;HPM_P2
2021/08/22 00:00:36;;;;;;;38.40;30.30;;;;;;;17.81;100.00;101426.75;2616061;31;20524;-63
2021/08/22 00:03:05;;;;;;;37.20;30.20;;;;;;;17.85;100.00;101426.22;2615362;36;20081;-65
2021/08/22 00:05:33;;;;;;;36.70;29.30;;;;;;;17.88;100.00;101418.75;2613589;36;21109;-64
2021/08/22 00:08:01;;;;;;;35.33;29.17;;;;;;;17.78;100.00;101414.31;2617223;31;20350;-65
2021/08/22 00:10:32;;;;;;;41.13;28.40;;;;;;;17.88;100.00;101410.59;2615249;36;20158;-66
2021/08/22 00:13:00;;;;;;;36.00;28.92;;;;;;;17.91;100.00;101410.28;2617458;36;20475;-64
2021/08/22 00:15:29;;;;;;;32.77;27.93;;;;;;;17.92;100.00;101404.66;2616672;36;20613;-64
2021/08/22 00:17:57;;;;;;;33.58;28.60;;;;;;;17.84;100.00;101399.16;2616700;36;20118;-64
2021/08/22 00:20:25;;;;;;;65.87;52.13;;;;;;;17.90;100.00;101397.66;2613763;36;20710;-64
2021/08/22 00:22:53;;;;;;;39.70;33.80;;;;;;;17.84;100.00;101400.03;2615185;36;20542;-64
2021/08/22 00:25:22;;;;;;;40.47;32.30;;;;;;;17.71;100.00;101390.66;2613804;36;20130;-65
2021/08/22 00:27:52;;;;;;;40.83;31.70;;;;;;;17.60;100.00;101398.16;2613064;54;20338;-66
2021/08/22 00:30:21;;;;;;;32.67;28.40;;;;;;;17.74;100.00;101396.63;2615890;31;20543;-65
2021/08/22 00:32:49;;;;;;;42.97;34.57;;;;;;;17.74;100.00;101404.81;2615398;36;20077;-66
2021/08/22 00:35:17;;;;;;;38.30;31.88;;;;;;;17.80;100.00;101393.22;2616225;36;20023;-64
2021/08/22 00:37:45;;;;;;;34.93;29.67;;;;;;;17.82;100.00;101390.31;2616990;36;20114;-66
2021/08/22 00:40:14;;;;;;;31.92;27.83;;;;;;;17.78;100.00;101389.81;2614807;36;20158;-66
2021/08/22 00:42:43;;;;;;;33.80;28.38;;;;;;;17.79;100.00;101383.34;2615133;36;20125;-65
2021/08/22 00:45:14;;;;;;;33.67;26.67;;;;;;;17.86;100.00;101376.19;2615491;36;20656;-66
2021/08/22 00:47:43;;;;;;;31.88;27.33;;;;;;;17.89;100.00;101383.19;2615483;31;20037;-66
2021/08/22 00:50:13;;;;;;;;;;;;;;;17.88;100.00;101388.81;2614424;36;21580;-65
2021/08/22 00:52:42;;;;;;;30.23;26.52;;;;;;;17.85;100.00;101385.38;2615085;36;19993;-66
2021/08/22 00:55:11;;;;;;;29.30;26.10;;;;;;;17.83;100.00;101376.53;2615457;36;20085;-65
2021/08/22 00:57:40;;;;;;;31.95;28.08;;;;;;;17.85;100.00;101369.03;2614514;36;20129;-66
2021/08/22 01:00:19;;;;;;;41.03;32.17;;;;;;;17.96;100.00;101370.59;2615226;36;20151;-66
2021/08/22 01:02:59;;;;;;;35.05;29.60;;;;;;;17.92;100.00;101369.25;2615561;36;20118;-66
2021/08/22 01:05:34;;;;;;;31.98;28.52;;;;;;;17.98;100.00;101365.00;2615274;36;20233;-66
2021/08/22 01:08:12;;;;;;;30.52;25.92;;;;;;;17.93;100.00;101364.63;2615469;36;20519;-66
2021/08/22 01:10:41;;;;;;;38.85;30.65;;;;;;;17.85;100.00;101360.03;2614976;36;20031;-66
2021/08/22 01:13:11;;;;;;;;;;;;;;;17.82;100.00;101366.66;2614953;36;20129;-66
2021/08/22 01:15:45;;;;;;;38.80;30.88;;;;;;;17.76;100.00;101364.63;2614338;36;19951;-67
2021/08/22 01:18:16;;;;;;;38.38;31.25;;;;;;;17.75;100.00;101362.91;2611580;36;20031;-66
2021/08/22 01:20:48;;;;;;;38.67;31.50;;;;;;;17.72;100.00;101363.25;2613327;31;20069;-66
2021/08/22 01:23:17;;;;;;;39.90;30.45;;;;;;;17.80;100.00;101362.41;2614420;36;20042;-66
2021/08/22 01:25:48;;;;;;;37.67;30.73;;;;;;;17.72;100.00;101349.66;2614903;31;20783;-65
2021/08/22 01:28:16;;;;;;;32.28;27.92;;;;;;;17.76;100.00;101348.28;2613939;36;20188;-65
2021/08/22 01:30:51;;;;;;;36.63;29.83;;;;;;;17.77;100.00;101350.00;2613564;36;20522;-66
2021/08/22 01:33:22;;;;;;;40.05;32.10;;;;;;;17.85;100.00;101358.16;2613805;36;20153;-66
2021/08/22 01:35:50;;;;;;;39.60;31.00;;;;;;;17.62;100.00;101354.41;2614160;36;20181;-66
2021/08/22 01:38:19;;;;;;;36.10;31.03;;;;;;;17.64;100.00;101352.41;2613268;36;20518;-65
2021/08/22 01:40:50;;;;;;;40.67;31.30;;;;;;;17.68;100.00;101361.91;2614208;36;20311;-66
2021/08/22 01:43:19;;;;;;;43.25;32.75;;;;;;;17.49;100.00;101358.50;2615324;36;20042;-65
2021/08/22 01:45:48;;;;;;;38.50;32.72;;;;;;;17.51;100.00;101356.47;2612144;31;21546;-66
2021/08/22 01:48:16;;;;;;;39.80;31.58;;;;;;;17.48;100.00;101356.81;2611100;36;20040;-65
2021/08/22 01:50:48;;;;;;;42.03;33.67;;;;;;;17.49;100.00;101358.50;2613914;36;20081;-66
2021/08/22 01:53:16;;;;;;;37.67;31.20;;;;;;;17.48;100.00;101354.09;2615271;36;20077;-66
2021/08/22 01:55:44;;;;;;;43.97;32.28;;;;;;;17.44;100.00;101349.16;2614760;36;20118;-66
2021/08/22 01:58:13;;;;;;;40.17;33.37;;;;;;;17.46;100.00;101342.53;2615026;36;20154;-66
2021/08/22 02:00:41;;;;;;;43.20;33.97;;;;;;;17.45;100.00;101338.09;2614973;36;20299;-66
2021/08/22 02:03:15;;;;;;;41.95;32.47;;;;;;;17.40;100.00;101348.66;2615714;36;20126;-66
2021/08/22 02:05:43;;;;;;;43.95;34.58;;;;;;;17.48;100.00;101345.91;2615657;36;20122;-65
2021/08/22 02:08:19;;;;;;;44.78;35.35;;;;;;;17.36;100.00;101347.28;2616244;31;20538;-66
2021/08/22 02:10:52;;;;;;;40.58;33.15;;;;;;;17.39;100.00;101341.50;2615624;36;20042;-66
2021/08/22 02:13:23;;;;;;;37.42;31.67;;;;;;;17.46;100.00;101347.97;2616386;36;20185;-65
2021/08/22 02:15:55;;;;;;;43.60;34.58;;;;;;;17.43;100.00;101345.59;2616373;36;20086;-65
2021/08/22 02:18:26;;;;;;;42.88;32.83;;;;;;;17.51;100.00;101351.03;2616566;36;20038;-65
2021/08/22 02:20:55;;;;;;;42.30;32.63;;;;;;;17.54;100.00;101336.22;2615526;36;20154;-66
2021/08/22 02:23:26;;;;;;;39.30;31.52;;;;;;;17.54;100.00;101338.94;2616765;36;20594;-66
2021/08/22 02:25:54;;;;;;;41.42;31.23;;;;;;;17.54;100.00;101335.38;2616402;36;20088;-66
2021/08/22 02:28:23;;;;;;;34.60;28.90;;;;;;;17.49;100.00;101341.31;2616934;31;20654;-66
2021/08/22 02:30:53;;;;;;;39.80;32.08;;;;;;;17.49;100.00;101333.16;2616312;31;20122;-66
2021/08/22 02:33:22;;;;;;;44.08;33.58;;;;;;;17.40;100.00;101343.22;2615808;36;20034;-66
2021/08/22 02:35:51;;;;;;;39.78;29.75;;;;;;;17.46;100.00;101336.22;2616275;36;20427;-66
2021/08/22 02:38:19;;;;;;;36.80;30.50;;;;;;;17.47;100.00;101336.03;2615572;36;20122;-65
2021/08/22 02:40:50;;;;;;;43.77;32.17;;;;;;;17.27;100.00;101326.50;2616304;36;20122;-66
2021/08/22 02:43:18;;;;;;;40.42;31.58;;;;;;;17.19;100.00;101321.91;2615753;36;20121;-65
2021/08/22 02:45:47;;;;;;;47.20;32.90;;;;;;;17.17;100.00;101332.97;2615574;36;20034;-65
2021/08/22 02:48:15;;;;;;;44.63;33.50;;;;;;;17.17;100.00;101326.69;2615764;36;20304;-65
2021/08/22 02:50:43;;;;;;;49.95;34.30;;;;;;;17.13;100.00;101326.16;2615507;36;20038;-66
2021/08/22 02:53:12;;;;;;;41.80;32.40;;;;;;;17.20;100.00;101328.22;2615950;36;20041;-66
2021/08/22 02:55:40;;;;;;;57.53;37.90;;;;;;;17.19;100.00;101326.53;2615925;36;20034;-65
2021/08/22 02:58:11;;;;;;;45.73;35.27;;;;;;;17.22;100.00;101328.91;2616099;36;20117;-66
2021/08/22 03:00:39;;;;;;;57.30;38.05;;;;;;;17.16;100.00;101331.25;2616023;36;20459;-66
2021/08/22 03:03:08;;;;;;;44.90;34.70;;;;;;;17.15;100.00;101329.59;2616348;36;20137;-66
2021/08/22 03:05:36;;;;;;;51.63;39.33;;;;;;;17.16;100.00;101331.25;2615331;36;20153;-65
2021/08/22 03:08:04;;;;;;;53.57;37.73;;;;;;;17.10;100.00;101321.06;2616047;36;20041;-66
2021/08/22 03:10:33;;;;;;;61.20;40.83;;;;;;;17.17;100.00;101315.81;2616239;36;20371;-66
2021/08/22 03:13:01;;;;;;;59.47;42.23;;;;;;;17.24;100.00;101325.00;2616117;36;20168;-66
2021/08/22 03:15:32;;;;;;;59.43;41.03;;;;;;;17.15;100.00;101318.69;2615273;36;20884;-65
2021/08/22 03:18:00;;;;;;;48.22;37.05;;;;;;;17.20;100.00;101314.63;2616047;36;20122;-66
2021/08/22 03:20:28;;;;;;;52.07;38.07;;;;;;;17.16;100.00;101319.53;2615873;36;20054;-66
2021/08/22 03:22:56;;;;;;;59.17;40.33;;;;;;;17.18;100.00;101317.50;2616272;36;20162;-68
2021/08/22 03:25:25;;;;;;;52.75;39.60;;;;;;;17.14;100.00;101308.00;2615706;36;20875;-66
2021/08/22 03:27:53;;;;;;;59.03;39.95;;;;;;;17.19;100.00;101316.47;2615968;36;20038;-67
2021/08/22 03:30:21;;;;;;;51.60;38.40;;;;;;;17.19;100.00;101312.91;2616033;31;20126;-67
2021/08/22 03:32:52;;;;;;;54.08;38.25;;;;;;;17.14;100.00;101310.72;2616096;36;20442;-66
2021/08/22 03:35:20;;;;;;;62.30;40.00;;;;;;;17.16;100.00;101314.09;2616304;36;20042;-66
2021/08/22 03:37:48;;;;;;;46.93;36.07;;;;;;;17.24;100.00;101305.97;2615972;36;20126;-67
2021/08/22 03:40:17;;;;;;;53.40;39.30;;;;;;;17.16;100.00;101312.22;2615881;36;20051;-67
2021/08/22 03:42:45;;;;;;;55.83;38.33;;;;;;;17.22;100.00;101309.84;2615855;36;20034;-67
2021/08/22 03:45:13;;;;;;;47.87;34.63;;;;;;;17.19;100.00;101311.03;2614670;36;20410;-67
2021/08/22 03:47:42;;;;;;;54.67;37.17;;;;;;;17.20;100.00;101296.44;2616049;36;20090;-67
2021/08/22 03:50:13;;;;;;;50.90;37.03;;;;;;;17.14;100.00;101306.09;2616592;31;20558;-67
2021/08/22 03:52:41;;;;;;;53.10;36.72;;;;;;;17.20;100.00;101307.31;2615901;36;20077;-67
2021/08/22 03:55:10;;;;;;;46.50;33.57;;;;;;;17.21;100.00;101305.44;2615794;36;20133;-67
2021/08/22 03:57:38;;;;;;;45.55;33.90;;;;;;;17.21;100.00;101300.88;2615550;36;20034;-65
2021/08/22 04:00:08;;;;;;;47.73;34.73;;;;;;;17.25;100.00;101296.75;2615227;36;20177;-67
2021/08/22 04:02:36;;;;;;;43.63;32.13;;;;;;;17.26;100.00;101295.75;2615942;36;20185;-69
2021/08/22 04:05:07;;;;;;;49.03;34.20;;;;;;;17.33;100.00;101293.22;2615949;36;20153;-68
2021/08/22 04:07:38;;;;;;;45.33;32.85;;;;;;;17.31;100.00;101293.38;2615719;36;20034;-68
2021/08/22 04:10:08;;;;;;;47.35;32.38;;;;;;;17.29;100.00;101291.84;2615261;36;20030;-67
2021/08/22 04:12:38;;;;;;;47.58;31.17;;;;;;;17.32;100.00;101303.22;2615668;31;20121;-68
2021/08/22 04:15:07;;;;;;;43.70;29.48;;;;;;;17.25;100.00;101302.19;2615476;36;20035;-68
2021/08/22 04:17:36;;;;;;;38.17;28.33;;;;;;;17.33;100.00;101304.94;2615366;36;20061;-67
2021/08/22 04:20:04;;;;;;;43.00;29.70;;;;;;;17.32;100.00;101296.94;2616033;36;20487;-67
2021/08/22 04:22:34;;;;;;;40.37;27.03;;;;;;;17.27;100.00;101299.31;2615804;36;20287;-67
2021/08/22 04:25:05;;;;;;;44.05;28.38;;;;;;;17.33;100.00;101298.66;2616087;36;20574;-68
2021/08/22 04:27:34;;;;;;;33.28;25.05;;;;;;;17.37;100.00;101299.16;2615426;31;20074;-68
2021/08/22 04:30:03;;;;;;;;;;;;;;;17.39;100.00;101303.41;2615376;31;20158;-67
2021/08/22 04:32:31;;;;;;;40.13;28.40;;;;;;;17.30;100.00;101299.00;2616866;31;19954;-67
2021/08/22 04:34:59;;;;;;;36.33;26.83;;;;;;;17.28;100.00;101304.56;2615727;36;20137;-67
2021/08/22 04:37:27;;;;;;;48.45;32.58;;;;;;;17.31;100.00;101311.56;2615771;36;20047;-67
2021/08/22 04:39:58;;;;;;;42.77;30.47;;;;;;;17.28;100.00;101312.75;2615503;36;20038;-67
2021/08/22 04:42:28;;;;;;;44.58;31.73;;;;;;;17.30;100.00;101310.72;2615366;36;20038;-67
2021/08/22 04:44:57;;;;;;;39.58;27.38;;;;;;;17.32;100.00;101308.66;2615150;36;20042;-68
2021/08/22 04:47:25;;;;;;;36.13;26.23;;;;;;;17.23;100.00;101315.13;2615636;36;20108;-67
2021/08/22 04:49:53;;;;;;;33.88;24.42;;;;;;;17.22;100.00;101318.03;2615491;36;20153;-67
2021/08/22 04:52:21;;;;;;;32.07;25.27;;;;;;;17.22;100.00;101318.03;2615441;31;20038;-67
2021/08/22 04:54:50;;;;;;;35.63;25.52;;;;;;;17.23;100.00;101311.56;2615424;31;20414;-66
2021/08/22 04:57:18;;;;;;;35.40;25.67;;;;;;;17.17;100.00;101319.38;2615595;36;20126;-67
2021/08/22 04:59:49;;;;;;;31.53;23.63;;;;;;;17.14;100.00;101316.16;2615063;36;20125;-67
2021/08/22 05:02:17;;;;;;;29.67;23.42;;;;;;;17.16;100.00;101320.38;2614955;36;20428;-67
2021/08/22 05:04:45;;;;;;;30.47;24.87;;;;;;;17.25;100.00;101326.69;2616030;36;20077;-67
2021/08/22 05:07:13;;;;;;;30.63;23.80;;;;;;;17.25;100.00;101323.13;2615707;36;20529;-67
2021/08/22 05:09:42;;;;;;;32.13;23.38;;;;;;;17.15;100.00;101323.28;2615854;36;20779;-67
2021/08/22 05:12:10;;;;;;;30.67;22.97;;;;;;;17.15;100.00;101329.59;2615438;36;20153;-66
2021/08/22 05:14:38;;;;;;;34.85;23.88;;;;;;;17.22;100.00;101331.63;2614656;36;20391;-67
2021/08/22 05:17:11;;;;;;;29.87;23.40;;;;;;;17.22;100.00;101331.63;2616001;36;20061;-67
2021/08/22 05:19:39;;;;;;;33.50;24.27;;;;;;;17.22;100.00;101334.34;2615473;36;20031;-67
2021/08/22 05:22:08;;;;;;;30.50;23.03;;;;;;;17.27;100.00;101332.81;2615866;36;20037;-67
2021/08/22 05:24:36;;;;;;;35.53;26.15;;;;;;;17.23;100.00;101334.19;2615576;36;20303;-67
2021/08/22 05:27:04;;;;;;;29.47;23.67;;;;;;;17.21;100.00;101338.94;2615910;36;20130;-66
2021/08/22 05:29:33;;;;;;;27.52;21.38;;;;;;;17.21;100.00;101333.50;2614504;36;20038;-67
2021/08/22 05:32:02;;;;;;;28.13;23.13;;;;;;;17.24;100.00;101335.88;2614852;36;20130;-67
2021/08/22 05:34:32;;;;;;;;;;;;;;;17.27;100.00;101334.69;2615586;36;20282;-67
2021/08/22 05:37:00;;;;;;;33.95;24.67;;;;;;;17.28;100.00;101336.38;2615842;36;20045;-67
2021/08/22 05:39:29;;;;;;;34.13;24.77;;;;;;;17.23;100.00;101334.19;2615909;36;20889;-67
2021/08/22 05:41:57;;;;;;;30.20;23.03;;;;;;;17.17;100.00;101338.41;2615342;36;20161;-67
2021/08/22 05:44:25;;;;;;;34.58;24.35;;;;;;;17.16;100.00;101331.25;2614874;36;20129;-66
2021/08/22 05:46:53;;;;;;;33.87;24.30;;;;;;;17.12;100.00;101335.34;2615732;36;20121;-66
2021/08/22 05:49:22;;;;;;;37.20;26.10;;;;;;;17.13;100.00;101330.75;2614856;36;20126;-67
2021/08/22 05:51:52;;;;;;;36.28;24.52;;;;;;;17.11;100.00;101333.66;2615330;36;20126;-67
2021/08/22 05:54:20;;;;;;;36.30;24.90;;;;;;;17.19;100.00;101332.81;2615547;36;20034;-66
2021/08/22 05:56:49;;;;;;;40.30;25.53;;;;;;;17.15;100.00;101337.75;2615494;36;20160;-66
2021/08/22 05:59:17;;;;;;;43.05;26.27;;;;;;;17.16;100.00;101339.41;2614223;36;20038;-67
2021/08/22 06:01:45;;;;;;;42.13;26.50;;;;;;;17.15;100.00;101334.16;2615784;36;20050;-67
2021/08/22 06:04:14;;;;;;;40.42;26.30;;;;;;;17.26;100.00;101346.59;2615125;36;20133;-66
2021/08/22 06:06:42;;;;;;;43.40;25.45;;;;;;;17.18;100.00;101336.53;2614006;36;20038;-67
2021/08/22 06:09:13;;;;;;;38.63;26.42;;;;;;;17.24;100.00;101337.72;2612553;36;20125;-66
2021/08/22 06:11:41;;;;;;;37.22;24.65;;;;;;;17.33;100.00;101342.19;2616366;36;20165;-66
2021/08/22 06:16:48;;;;;;;38.63;26.42;;;;;;;17.36;100.00;101340.97;2613449;36;20134;-66
2021/08/22 06:19:16;;;;;;;40.83;26.10;;;;;;;17.38;100.00;101342.50;2614982;36;20186;-66
2021/08/22 06:21:44;;;;;;;39.03;25.42;;;;;;;17.58;100.00;101339.44;2613924;36;20488;-66
2021/08/22 06:24:15;;;;;;;40.90;26.33;;;;;;;17.80;100.00;101355.09;2614941;36;20158;-67
2021/08/22 06:26:43;;;;;;;40.63;26.90;;;;;;;17.79;100.00;101349.84;2615468;36;20046;-67
2021/08/22 06:29:11;;;;;;;36.33;25.03;;;;;;;17.92;100.00;101349.31;2614852;36;20157;-67
2021/08/22 06:31:39;;;;;;;33.28;24.30;;;;;;;17.90;100.00;101359.53;2614960;36;20113;-67
2021/08/22 06:34:10;;;;;;;34.27;22.80;;;;;;;17.95;100.00;101351.72;2615088;36;20619;-67
2021/08/22 06:36:40;;;;;;;34.67;22.38;;;;;;;17.77;100.00;101350.00;2615343;36;20303;-66
2021/08/22 06:39:08;;;;;;;29.13;21.50;;;;;;;17.89;100.00;101358.66;2615286;36;20510;-68
2021/08/22 06:41:39;;;;;;;30.70;23.02;;;;;;;17.86;100.00;101359.84;2615142;36;20666;-66
2021/08/22 06:44:07;;;;;;;33.33;22.38;;;;;;;17.97;100.00;101355.09;2614340;36;20662;-67
2021/08/22 06:46:35;;;;;;;31.63;22.35;;;;;;;18.12;100.00;101356.09;2614764;36;20030;-67
2021/08/22 06:49:04;;;;;;;31.70;22.30;;;;;;;18.33;100.00;101354.66;2615398;31;20058;-66
2021/08/22 06:51:32;;;;;;;37.63;25.77;;;;;;;18.03;100.00;101349.84;2614905;36;20125;-68
2021/08/22 06:54:00;;;;;;;38.30;26.05;;;;;;;17.93;100.00;101351.91;2615996;36;20034;-68
2021/08/22 06:56:29;;;;;;;37.07;25.50;;;;;;;18.02;100.00;101355.44;2615575;36;20509;-66
2021/08/22 06:58:59;;;;;;;44.42;28.23;;;;;;;17.86;100.00;101343.53;2616102;31;20303;-66
2021/08/22 07:01:28;;;;;;;43.30;29.55;;;;;;;18.11;100.00;101351.69;2615642;36;20442;-66
2021/08/22 07:03:56;;;;;;;48.17;29.67;;;;;;;18.09;100.00;101356.44;2616527;31;20508;-67
2021/08/22 07:06:24;;;;;;;49.97;30.13;;;;;;;17.90;100.00;101354.94;2616200;36;20595;-67
2021/08/22 07:08:52;;;;;;;53.43;33.10;;;;;;;17.83;100.00;101360.22;2615926;36;20085;-67
2021/08/22 07:11:21;;;;;;;51.77;31.03;;;;;;;17.84;100.00;101363.75;2616108;36;20173;-66
2021/08/22 07:13:49;;;;;;;61.63;34.23;;;;;;;17.83;100.00;101368.38;2615859;36;20599;-66
2021/08/22 07:16:20;;;;;;;65.67;34.20;;;;;;;17.73;100.00;101359.53;2615020;31;20603;-67
2021/08/22 07:18:48;;;;;;;69.68;36.50;;;;;;;17.76;100.00;101370.06;2616268;36;20038;-66
2021/08/22 07:21:16;;;;;;;70.07;38.33;;;;;;;17.64;100.00;101360.56;2615661;36;20046;-66
2021/08/22 07:23:44;;;;;;;76.00;39.28;;;;;;;17.86;100.00;101370.75;2616219;36;20129;-66
2021/08/22 07:26:13;;;;;;;73.43;37.97;;;;;;;17.74;100.00;101369.41;2615552;36;20077;-67
2021/08/22 07:28:41;;;;;;;67.95;37.42;;;;;;;17.69;100.00;101363.63;2615964;36;20133;-66
2021/08/22 07:31:10;;;;;;;72.53;37.80;;;;;;;17.81;100.00;101366.84;2615664;36;20130;-66
2021/08/22 07:33:41;;;;;;;63.10;36.20;;;;;;;17.88;100.00;101367.00;2616516;36;20466;-67
2021/08/22 07:36:09;;;;;;;67.40;35.80;;;;;;;17.82;100.00;101363.94;2615886;31;20303;-66
2021/08/22 07:38:37;;;;;;;61.65;34.65;;;;;;;17.81;100.00;101367.69;2616078;36;20162;-66
2021/08/22 07:41:05;;;;;;;68.97;36.20;;;;;;;17.80;100.00;101373.28;2615364;36;20192;-66
2021/08/22 07:43:34;;;;;;;58.47;33.50;;;;;;;17.68;100.00;101375.50;2615584;36;20034;-66
2021/08/22 07:46:02;;;;;;;59.95;35.22;;;;;;;17.76;100.00;101380.97;2616117;31;20137;-66
2021/08/22 07:48:31;;;;;;;57.27;33.67;;;;;;;17.79;100.00;101372.44;2615821;36;20072;-66
2021/08/22 07:51:01;;;;;;;55.10;33.40;;;;;;;17.83;100.00;101382.00;2615762;36;20126;-66
2021/08/22 07:53:30;;;;;;;60.03;34.63;;;;;;;17.87;100.00;101371.59;2615826;36;20053;-66
2021/08/22 07:55:58;;;;;;;56.90;34.78;;;;;;;18.08;100.00;101379.28;2615249;36;20126;-66
2021/08/22 07:58:26;;;;;;;68.53;37.33;;;;;;;17.91;100.00;101369.41;2615173;36;20040;-66
2021/08/22 08:00:55;;;;;;;57.93;33.77;;;;;;;18.16;100.00;101370.22;2615940;31;20045;-66
2021/08/22 08:03:24;;;;;;;61.78;35.08;;;;;;;18.19;100.00;101370.72;2616279;36;20076;-66
2021/08/22 08:05:54;;;;;;;64.35;36.17;;;;;;;18.13;100.00;101376.03;2615746;36;20064;-66
2021/08/22 08:08:25;;;;;;;63.95;37.17;;;;;;;18.24;100.00;101380.25;2615711;36;20035;-66
2021/08/22 08:10:53;;;;;;;63.75;35.33;;;;;;;18.28;100.00;101376.16;2615399;36;20085;-66
2021/08/22 08:13:21;;;;;;;59.10;34.75;;;;;;;18.47;100.00;101378.47;2615780;36;20065;-66
2021/08/22 08:15:49;;;;;;;55.60;34.67;;;;;;;18.53;100.00;101372.31;2614986;36;20137;-65
2021/08/22 08:18:18;;;;;;;53.10;34.03;;;;;;;18.84;100.00;101373.38;2615878;36;20085;-66
2021/08/22 08:20:46;;;;;;;57.35;32.75;;;;;;;18.86;100.00;101369.50;2616157;36;20030;-65
2021/08/22 08:23:14;;;;;;;59.00;33.87;;;;;;;18.89;100.00;101365.56;2615591;36;20161;-65
2021/08/22 08:25:45;;;;;;;53.90;33.10;;;;;;;18.65;100.00;101372.78;2616520;31;20487;-66
2021/08/22 08:28:13;;;;;;;52.10;33.58;;;;;;;18.56;100.00;101363.81;2615727;36;20104;-66
2021/08/22 08:30:41;;;;;;;52.97;35.63;;;;;;;18.59;100.00;101372.66;2615365;36;20565;-66
2021/08/22 08:33:09;;;;;;;55.37;34.30;;;;;;;19.00;100.00;101367.03;2615885;36;20118;-67
2021/08/22 08:35:38;;;;;;;46.27;32.37;;;;;;;19.08;100.00;101365.09;2616204;36;20038;-66
2021/08/22 08:38:06;;;;;;;49.83;33.10;;;;;;;19.38;100.00;101358.94;2615928;36;20114;-66
2021/08/22 08:40:35;;;;;;;40.03;28.15;;;;;;;19.89;100.00;101351.03;2614899;36;20310;-66
2021/08/22 08:43:07;;;;;;;36.33;25.63;;;;;;;20.04;100.00;101352.94;2616304;31;20538;-66
2021/08/22 08:45:44;;;;;;;37.25;27.75;;;;;;;20.03;100.00;101346.59;2615806;36;20035;-67
2021/08/22 08:48:13;;;;;;;37.08;26.83;;;;;;;19.86;100.00;101356.84;2614667;36;20573;-66
2021/08/22 08:50:43;;;;;;;35.10;25.10;;;;;;;19.61;100.00;101359.78;2616042;31;20121;-65
2021/08/22 08:53:11;;;;;;;37.05;25.38;;;;;;;19.46;100.00;101366.22;2615124;31;20030;-66
2021/08/22 08:55:39;;;;;;;34.45;24.15;;;;;;;19.50;100.00;101354.75;2615005;36;20147;-67
2021/08/22 08:58:10;;;;;;;36.28;24.77;;;;;;;19.50;100.00;101368.38;2616122;31;20104;-67
2021/08/22 09:00:38;;;;;;;34.05;25.60;;;;;;;19.89;100.00;101361.09;2615359;36;20129;-66
2021/08/22 09:03:07;;;;;;;32.90;24.87;;;;;;;19.72;100.00;101355.75;2616279;36;20496;-67
2021/08/22 09:05:55;;;;;;;35.10;25.02;;;;;;;20.04;100.00;101367.44;2615553;36;20094;-67
2021/08/22 09:08:53;;;;;;;32.72;21.80;;;;;;;19.99;100.00;101363.56;2614837;36;21198;-68
2021/08/22 09:12:01;;;;;;;32.03;20.52;;;;;;;20.54;100.00;101364.13;2615715;36;20491;-69
2021/08/22 09:15:12;;;;;;;26.85;19.15;;;;;;;20.73;100.00;101351.78;2615491;36;20650;-68
2021/08/22 09:18:10;;;;;;;27.02;18.48;;;;;;;21.20;100.00;101355.06;2614238;36;20122;-67
2021/08/22 09:21:38;;;;;;;26.63;18.38;;;;;;;21.55;100.00;101355.22;2615581;36;20125;-67
2021/08/22 09:24:36;;;;;;;25.83;17.40;;;;;;;21.37;100.00;101347.47;2615549;31;20038;-67
2021/08/22 09:27:46;;;;;;;21.92;16.17;;;;;;;20.82;100.00;101345.19;2615687;36;20546;-67
2021/08/22 09:30:53;;;;;;;21.33;15.32;;;;;;;20.54;100.00;101339.53;2614667;36;20514;-68
2021/08/22 09:34:01;;;;;;;23.65;16.40;;;;;;;20.59;100.00;101337.91;2615593;36;20141;-68
2021/08/22 09:37:16;;;;;;;25.38;16.20;;;;;;;20.40;100.00;101335.78;2616006;36;20066;-67
2021/08/22 09:40:15;;;;;;;25.08;15.90;;;;;;;20.46;100.00;101343.22;2613409;36;20172;-67
2021/08/22 09:43:13;;;;;;;22.38;16.30;;;;;;;20.35;100.00;101346.44;2614726;36;20117;-68
2021/08/22 09:46:23;;;;;;;24.23;16.23;;;;;;;20.40;100.00;101338.50;2615375;36;20038;-67
2021/08/22 09:49:30;;;;;;;21.88;16.25;;;;;;;20.38;100.00;101340.59;2615668;36;20038;-67
2021/08/22 09:52:40;;;;;;;22.07;16.10;;;;;;;20.29;100.00;101346.16;2615869;31;20034;-67
2021/08/22 09:55:38;;;;;;;25.77;17.65;;;;;;;20.02;100.00;101341.31;2615536;36;20394;-66
2021/08/22 09:58:57;;;;;;;25.58;17.83;;;;;;;19.50;100.00;101337.53;2615029;36;20173;-66
2021/08/22 10:01:40;;;;;;;;;;;;;;;19.81;100.00;101347.53;2614959;36;20122;-68
2021/08/22 10:04:56;;;;;;;22.70;17.48;;;;;;;20.15;100.00;101341.53;2615275;36;20030;-66
2021/08/22 10:07:46;;;;;;;22.45;17.20;;;;;;;20.58;100.00;101336.25;2616453;31;20035;-68
2021/08/22 10:10:15;;;;;;;20.50;16.55;;;;;;;21.14;100.00;101330.19;2614167;36;20142;-66
2021/08/22 10:12:44;;;;;;;19.63;17.45;;;;;;;20.56;100.00;101327.38;2616238;31;20533;-65
2021/08/22 10:15:13;;;;;;;26.33;18.40;;;;;;;20.60;100.00;101330.59;2614993;36;20034;-68
2021/08/22 10:17:41;;;;;;;20.45;17.70;;;;;;;20.29;100.00;101337.94;2614971;36;20110;-66
2021/08/22 10:20:13;;;;;;;21.33;18.20;;;;;;;20.38;100.00;101332.41;2615360;36;20118;-66
2021/08/22 10:22:41;;;;;;;24.10;18.27;;;;;;;20.42;100.00;101334.56;2613797;31;20117;-66
2021/08/22 10:25:11;;;;;;;21.40;18.73;;;;;;;20.61;100.00;101344.06;2613104;36;20084;-67
2021/08/22 10:27:53;;;;;;;24.65;17.67;;;;;;;20.42;100.00;101339.16;2614832;36;20345;-66
2021/08/22 10:30:23;;;;;;;20.98;17.90;;;;;;;20.60;100.00;101334.16;2614890;36;20092;-67
2021/08/22 10:33:09;;;;;;;20.85;15.50;;;;;;;20.79;100.00;101334.63;2615500;36;20026;-66
2021/08/22 10:35:41;;;;;;;20.30;16.10;;;;;;;20.89;100.00;101324.22;2614519;36;20131;-66
2021/08/22 10:38:30;;;;;;;20.77;15.25;;;;;;;21.46;100.00;101335.31;2613666;36;20539;-68
2021/08/22 10:41:00;;;;;;;19.65;15.65;;;;;;;21.95;100.00;101328.16;2614604;36;20551;-66
2021/08/22 10:43:49;;;;;;;17.30;14.27;;;;;;;21.54;100.00;101332.50;2616263;36;20613;-66
2021/08/22 10:46:19;;;;;;;14.80;13.15;;;;;;;21.35;100.00;101334.81;2615237;36;20585;-67
2021/08/22 10:48:54;;;;;;;20.38;14.60;;;;;;;20.88;100.00;101338.94;2613815;36;20570;-67
2021/08/22 10:51:26;;;;;;;18.45;13.98;;;;;;;20.50;100.00;101351.91;2615294;36;20034;-69
2021/08/22 10:54:21;;;;;;;21.30;11.93;;;;;;;19.89;100.00;101361.94;2614284;36;20034;-67
2021/08/22 10:56:50;;;;;;;20.02;13.07;;;;;;;19.79;100.00;101364.09;2614418;36;20439;-69
2021/08/22 10:59:18;;;;;;;19.13;13.18;;;;;;;19.24;100.00;101366.88;2615701;36;20622;-70
2021/08/22 11:01:47;;;;;;;17.20;13.40;;;;;;;19.25;100.00;101370.44;2614144;31;20034;-70
2021/08/22 11:04:17;;;;;;;;;;;;;;;19.26;100.00;101366.69;2614817;36;20030;-71
2021/08/22 11:07:02;;;;;;;19.58;14.63;;;;;;;19.29;100.00;101376.38;2615422;36;19947;-69
2021/08/22 11:09:51;;;;;;;20.52;15.52;;;;;;;19.31;100.00;101380.63;2615434;36;20435;-71
2021/08/22 11:12:32;;;;;;;19.48;16.35;;;;;;;19.33;100.00;101373.13;2613359;36;20130;-69
2021/08/22 11:15:02;;;;;;;25.25;19.08;;;;;;;19.18;100.00;101375.78;2615035;36;20044;-69
2021/08/22 11:17:30;;;;;;;23.95;18.70;;;;;;;19.11;100.00;101391.19;2613691;36;20034;-70
2021/08/22 11:20:12;;;;;;;30.75;20.55;;;;;;;19.17;100.00;101401.38;2615673;36;20525;-72
2021/08/22 11:22:44;;;;;;;23.05;17.52;;;;;;;18.99;100.00;101407.13;2615289;36;20558;-71
2021/08/22 11:25:13;;;;;;;21.33;16.52;;;;;;;19.19;100.00;101409.38;2613523;36;20030;-70
2021/08/22 11:27:42;;;;;;;19.73;14.48;;;;;;;19.06;100.00;101407.22;2613991;36;20122;-70
2021/08/22 11:30:13;;;;;;;16.90;14.35;;;;;;;19.14;100.00;101396.28;2614083;36;20053;-70